Tuckerman, AR (72473)

07:52 AM CDT am 05. Juli 2015 (GMT -0500)
Newport | | Change Station
CLOSE
Current Station
Flughafen
Location: Newport,
Höhe: 240 ft
Wetterstationen in der Umgebung
aktive Warnung: Flood Warning aktiver Hinweis: Record Report

Höhe 240 ft 35.64 °N, 91.17 °W | Updated 47 minutes ago

Bedeckt
Bedeckt
72 °F
gefühlte 72 °F
N
4
Wind Wechselnd Wind aus Süd

Heute
Max. -- | schwach -- °F
--% Regenrisiko
Gestern
Max. -- | schwach -- °F
Precip. -- inch
5:54 AM 8:24 PM
Drittes Viertel, 85% visible
Druck 30.07 inch
Sichtweite 3.0 Meilen
Wolken Bedeckt 200 ft
Taupunkt 72 °F
Feuchtigkeit 100%
Regen 0.00 inch
Schneehöhe Nicht verfügbar..
UV 0 von 12
Pollen 3.70 von 12
Luftqualität Nicht verfügbar..
Flu Activity Nicht verfügbar..
SPECI KM19 051205Z AUTO 19003KT 3SM BR OVC002 22/22 A3007 RMK AO2

More Conditions Fewer Conditions

Druck 30.07 inch
Sichtweite 3.0 Meilen
Wolken Bedeckt 200 ft
Taupunkt 72 °F
Feuchtigkeit 100%
Regen 0.00 inch
Schneehöhe Nicht verfügbar..
UV 0 von 12
Pollen 3.70 von 12
Luftqualität Nicht verfügbar..
Flu Activity Nicht verfügbar..
SPECI KM19 051205Z AUTO 19003KT 3SM BR OVC002 22/22 A3007 RMK AO2

More Conditions Fewer Conditions

10-Day Weather Forecast

×

Almanac

Astronomie

Jul. 05, 2015 Aufgang Untergang
Genaue Zeit
Bürgerliche Dämmerung
Nautische Dämmerung
Astronomische Dämmerung
Mond
Länge des sichtbaren Lichts
Tageslänge
Tomorrow will be .
, % of the Moon is Illuminated

Heutige Rekorde

State Highs State Lows

Community

WunderPhotos

Upload Photos

1,835,248 Fotos hochgeladen!

WunderBlogs® & News

Nearby

Luftqualität

  Luftqualität LQ Index Schadstoff
Not available.

Schneehöhe

Station Depth Höhe

Erdbebenaktivität

Stadt Distance Mag. Time & Date
Minimum magnitude displayed is 2.5.

küstennahe Wassertemperaturen

Ort Temperatur

Stations

Wetterstationen in der Umgebung

Stationsstandort Temp. Windchill Taupunkt Feuchtigkeit Wind Precip. Höhe Aktualisiert Art
                   
Flood Warning
Statement as of 08:54 PM CDT am 04. Juli 2015

The Flood Warning continues for
the Cache River near Patterson.
* From late Sunday night until further notice... or until the warning
is cancelled.
* At 8:00 PM Saturday the stage was 7.2 feet.
* Minor flooding is forecast.
* Flood stage is 8.0 feet.
* Forecast... rise above flood stage by early Monday morning and
continue to rise to near 9.0 feet by Thursday early afternoon.
* Impact... at 8.0 feet... low swampy Timberland along the river begins
to flood. Flood gates should be closed and equipment moved out of
the low grounds along the river and tributaries.


             Fld observed forecast 7 am
location stg stg day time sun Mon Tue Wed Thu

Cache River
Patterson 8 7.2 Sat 08 PM 7.7 8.1 8.6 8.9 9.0




Lat... Lon 3510 9133 3522 9128 3539 9123 3538 9113
3521 9117 3508 9122